Palm Springs, CA

12:26 PST le 27 février 2017 (GMT -0800)
Palm Springs International | | Change Station

Alt. 472 ft 33.83 °N, 116.51 °W | Updated 33 minutes ago

Pluie
Pluie
53 ° F
Paraît 53 ° F
N
5
Vent Variable Vent de Variable

Aujourd'hui
Haut(e) -- | Bas -- ° F
--% Risque de précip.
Hier
Haut(e) -- | Bas -- ° F
Precip. -- pouce
Pression 29.93 pouce
Visibilité 9.0 Miles terrestres
Nuages Couvert 6000 ft
Point de rosée 48 ° F
Humidité 83%
Précipitations 0.06 pouce
Profondeur de la couche neigeuse Non disponible.
6:16 AM 5:41 PM
Nouvelle lune, 2% visible
METAR KPSP 271953Z VRB04KT 9SM -RA OVC060 12/09 A2992 RMK AO2 SLP133 P0004 T01170089
Pression 29.93 pouce
Visibilité 9.0 Miles terrestres
Nuages Couvert 6000 ft
Point de rosée 48 ° F
Humidité 83%
Précipitations 0.06 pouce
Profondeur de la couche neigeuse Non disponible.
6:16 AM 5:41 PM
Nouvelle lune, 2% visible
METAR KPSP 271953Z VRB04KT 9SM -RA OVC060 12/09 A2992 RMK AO2 SLP133 P0004 T01170089

Get Your Daily Forecast Email!

Thanks for signing up!

Be on the lookout for a verification email in your inbox.

You'll start receiving the daily forecast at 8 AM.

×

10-Day Weather Forecast

Almanac

Astronomie

Feb. 27, 2017 Lever Coucher
Temps réel
Crépuscule civil
Crépuscule nautique
Crépuscule astronomique
Lune
Durée de lumière visible
Longueur du jour
Tomorrow will be .
, % of the Moon is Illuminated

Extrêmes aujourd'hui

State Highs State Lows

Community

WunderPhotos

Upload Photos

1,962,540 Photos téléchargées !

WunderBlog® & News

Nearby

Qualité de l'air

  Qualité de l'air Indice de la qualité de l'air Polluant
Not available.

Épaisseur de neige

Station Depth Altitude

Activité sismique

Ville Distance Mag. Time & Date
Minimum magnitude displayed is 2.5.

Températures des eaux côtières

Lieu Température

Stations

Stations météo à proximité

Emplacement de la station Température Refroidissement éolien Point de rosée Humidité Vent Precip. Alt. Mise à jour Type
                   

Watches & Warnings

There are currently no watches in effect.